sensor_id;sensor_type;location;lat;lon;timestamp;P1;durP1;ratioP1;P2;durP2;ratioP2
3141;SDS011;1581;51.568;6.998;2023-04-24T00:00:11;0.60;;;0.60;;
3141;SDS011;1581;51.568;6.998;2023-04-24T00:02:40;1.00;;;0.60;;
3141;SDS011;1581;51.568;6.998;2023-04-24T00:05:11;4.43;;;0.90;;
3141;SDS011;1581;51.568;6.998;2023-04-24T00:07:41;3.50;;;0.73;;
3141;SDS011;1581;51.568;6.998;2023-04-24T00:10:10;0.80;;;0.80;;
3141;SDS011;1581;51.568;6.998;2023-04-24T00:12:39;3.43;;;0.63;;
3141;SDS011;1581;51.568;6.998;2023-04-24T00:15:07;1.50;;;0.90;;
3141;SDS011;1581;51.568;6.998;2023-04-24T00:17:36;3.70;;;1.10;;
3141;SDS011;1581;51.568;6.998;2023-04-24T00:20:05;0.97;;;0.87;;
3141;SDS011;1581;51.568;6.998;2023-04-24T00:22:35;2.33;;;0.70;;
3141;SDS011;1581;51.568;6.998;2023-04-24T00:25:05;0.90;;;0.70;;
3141;SDS011;1581;51.568;6.998;2023-04-24T00:27:34;1.93;;;0.90;;
3141;SDS011;1581;51.568;6.998;2023-04-24T00:30:02;2.70;;;0.70;;
3141;SDS011;1581;51.568;6.998;2023-04-24T00:32:31;1.13;;;0.60;;
3141;SDS011;1581;51.568;6.998;2023-04-24T00:34:59;3.50;;;0.87;;
3141;SDS011;1581;51.568;6.998;2023-04-24T00:37:28;1.37;;;0.80;;
3141;SDS011;1581;51.568;6.998;2023-04-24T00:39:56;1.23;;;0.83;;
3141;SDS011;1581;51.568;6.998;2023-04-24T00:42:26;1.00;;;0.80;;
3141;SDS011;1581;51.568;6.998;2023-04-24T00:44:54;2.27;;;1.00;;
3141;SDS011;1581;51.568;6.998;2023-04-24T00:47:22;2.30;;;1.10;;
3141;SDS011;1581;51.568;6.998;2023-04-24T00:49:51;3.20;;;1.13;;
3141;SDS011;1581;51.568;6.998;2023-04-24T00:52:19;2.83;;;2.60;;
3141;SDS011;1581;51.568;6.998;2023-04-24T00:54:49;13.43;;;1.00;;
3141;SDS011;1581;51.568;6.998;2023-04-24T00:57:17;4.87;;;1.30;;
3141;SDS011;1581;51.568;6.998;2023-04-24T00:59:47;2.07;;;1.80;;
3141;SDS011;1581;51.568;6.998;2023-04-24T01:02:15;8.03;;;1.80;;
3141;SDS011;1581;51.568;6.998;2023-04-24T01:04:43;1.73;;;1.00;;
3141;SDS011;1581;51.568;6.998;2023-04-24T01:07:11;1.73;;;1.10;;
3141;SDS011;1581;51.568;6.998;2023-04-24T01:09:39;3.73;;;1.67;;
3141;SDS011;1581;51.568;6.998;2023-04-24T01:12:08;2.33;;;1.90;;
3141;SDS011;1581;51.568;6.998;2023-04-24T01:14:36;5.50;;;2.13;;
3141;SDS011;1581;51.568;6.998;2023-04-24T01:17:06;6.43;;;1.90;;
3141;SDS011;1581;51.568;6.998;2023-04-24T01:19:34;5.17;;;2.37;;
3141;SDS011;1581;51.568;6.998;2023-04-24T01:22:02;2.17;;;1.90;;
3141;SDS011;1581;51.568;6.998;2023-04-24T01:24:36;3.40;;;2.43;;
3141;SDS011;1581;51.568;6.998;2023-04-24T01:27:05;9.20;;;2.57;;
3141;SDS011;1581;51.568;6.998;2023-04-24T01:29:34;3.03;;;2.43;;
3141;SDS011;1581;51.568;6.998;2023-04-24T01:32:02;3.10;;;2.23;;
3141;SDS011;1581;51.568;6.998;2023-04-24T01:34:31;3.37;;;3.07;;
3141;SDS011;1581;51.568;6.998;2023-04-24T01:37:00;6.77;;;3.27;;
3141;SDS011;1581;51.568;6.998;2023-04-24T01:39:29;4.33;;;2.70;;
3141;SDS011;1581;51.568;6.998;2023-04-24T01:41:58;3.27;;;2.97;;
3141;SDS011;1581;51.568;6.998;2023-04-24T01:44:28;9.40;;;3.37;;
3141;SDS011;1581;51.568;6.998;2023-04-24T01:47:03;3.93;;;3.03;;
3141;SDS011;1581;51.568;6.998;2023-04-24T01:49:32;5.73;;;3.33;;
3141;SDS011;1581;51.568;6.998;2023-04-24T01:52:00;4.77;;;3.73;;
3141;SDS011;1581;51.568;6.998;2023-04-24T01:54:29;3.93;;;3.57;;
3141;SDS011;1581;51.568;6.998;2023-04-24T01:56:57;4.97;;;3.67;;
3141;SDS011;1581;51.568;6.998;2023-04-24T01:59:27;7.40;;;4.50;;
3141;SDS011;1581;51.568;6.998;2023-04-24T02:01:56;6.93;;;4.30;;
3141;SDS011;1581;51.568;6.998;2023-04-24T02:04:24;6.87;;;3.70;;
3141;SDS011;1581;51.568;6.998;2023-04-24T02:06:53;5.87;;;4.40;;
3141;SDS011;1581;51.568;6.998;2023-04-24T02:09:21;5.73;;;4.13;;
3141;SDS011;1581;51.568;6.998;2023-04-24T02:11:50;5.20;;;4.33;;
3141;SDS011;1581;51.568;6.998;2023-04-24T02:14:18;4.80;;;3.80;;
3141;SDS011;1581;51.568;6.998;2023-04-24T02:16:46;8.73;;;3.67;;
3141;SDS011;1581;51.568;6.998;2023-04-24T02:19:17;3.60;;;3.30;;
3141;SDS011;1581;51.568;6.998;2023-04-24T02:21:47;5.20;;;3.90;;
3141;SDS011;1581;51.568;6.998;2023-04-24T02:24:21;5.60;;;3.90;;
3141;SDS011;1581;51.568;6.998;2023-04-24T02:26:50;7.07;;;3.70;;
3141;SDS011;1581;51.568;6.998;2023-04-24T02:29:18;12.30;;;4.57;;
3141;SDS011;1581;51.568;6.998;2023-04-24T02:31:46;5.47;;;3.90;;
3141;SDS011;1581;51.568;6.998;2023-04-24T02:34:14;6.33;;;4.70;;
3141;SDS011;1581;51.568;6.998;2023-04-24T02:36:42;10.20;;;4.57;;
3141;SDS011;1581;51.568;6.998;2023-04-24T02:39:11;10.07;;;5.50;;
3141;SDS011;1581;51.568;6.998;2023-04-24T02:41:41;11.40;;;5.30;;
3141;SDS011;1581;51.568;6.998;2023-04-24T02:44:11;17.43;;;6.90;;
3141;SDS011;1581;51.568;6.998;2023-04-24T02:46:40;10.80;;;6.40;;
3141;SDS011;1581;51.568;6.998;2023-04-24T02:49:08;12.37;;;6.43;;
3141;SDS011;1581;51.568;6.998;2023-04-24T02:51:37;9.77;;;6.50;;
3141;SDS011;1581;51.568;6.998;2023-04-24T02:54:06;9.20;;;6.23;;
3141;SDS011;1581;51.568;6.998;2023-04-24T02:56:36;10.07;;;7.07;;
3141;SDS011;1581;51.568;6.998;2023-04-24T02:59:03;7.23;;;6.53;;
3141;SDS011;1581;51.568;6.998;2023-04-24T03:01:33;12.17;;;7.40;;
3141;SDS011;1581;51.568;6.998;2023-04-24T03:04:01;8.60;;;6.77;;
3141;SDS011;1581;51.568;6.998;2023-04-24T03:06:30;13.27;;;7.80;;
3141;SDS011;1581;51.568;6.998;2023-04-24T03:09:00;12.03;;;7.67;;
3141;SDS011;1581;51.568;6.998;2023-04-24T03:11:28;13.47;;;6.80;;
3141;SDS011;1581;51.568;6.998;2023-04-24T03:13:56;12.60;;;7.27;;
3141;SDS011;1581;51.568;6.998;2023-04-24T03:16:24;12.33;;;7.77;;
3141;SDS011;1581;51.568;6.998;2023-04-24T03:18:53;14.40;;;9.30;;
3141;SDS011;1581;51.568;6.998;2023-04-24T03:21:21;10.93;;;7.77;;
3141;SDS011;1581;51.568;6.998;2023-04-24T03:23:49;17.90;;;8.27;;
3141;SDS011;1581;51.568;6.998;2023-04-24T03:26:17;15.87;;;7.83;;
3141;SDS011;1581;51.568;6.998;2023-04-24T03:28:46;14.33;;;8.40;;
3141;SDS011;1581;51.568;6.998;2023-04-24T03:31:13;14.77;;;8.20;;
3141;SDS011;1581;51.568;6.998;2023-04-24T03:33:41;12.07;;;8.43;;
3141;SDS011;1581;51.568;6.998;2023-04-24T03:36:11;11.73;;;7.87;;
3141;SDS011;1581;51.568;6.998;2023-04-24T03:38:39;14.17;;;8.70;;
3141;SDS011;1581;51.568;6.998;2023-04-24T03:41:07;11.53;;;8.57;;
3141;SDS011;1581;51.568;6.998;2023-04-24T03:43:35;13.63;;;8.03;;
3141;SDS011;1581;51.568;6.998;2023-04-24T03:46:03;13.20;;;7.70;;
3141;SDS011;1581;51.568;6.998;2023-04-24T03:48:32;16.73;;;11.00;;
3141;SDS011;1581;51.568;6.998;2023-04-24T03:51:00;15.17;;;8.47;;
3141;SDS011;1581;51.568;6.998;2023-04-24T03:53:29;14.83;;;8.33;;
3141;SDS011;1581;51.568;6.998;2023-04-24T03:55:58;14.27;;;8.60;;
3141;SDS011;1581;51.568;6.998;2023-04-24T03:58:26;18.43;;;7.80;;
3141;SDS011;1581;51.568;6.998;2023-04-24T04:00:54;13.80;;;8.90;;
3141;SDS011;1581;51.568;6.998;2023-04-24T04:03:23;15.10;;;9.27;;
3141;SDS011;1581;51.568;6.998;2023-04-24T04:05:51;15.80;;;9.03;;
3141;SDS011;1581;51.568;6.998;2023-04-24T04:08:19;18.87;;;9.67;;
3141;SDS011;1581;51.568;6.998;2023-04-24T04:10:49;13.27;;;8.93;;
3141;SDS011;1581;51.568;6.998;2023-04-24T04:13:17;17.40;;;9.40;;
3141;SDS011;1581;51.568;6.998;2023-04-24T04:15:44;13.97;;;8.60;;
3141;SDS011;1581;51.568;6.998;2023-04-24T04:18:13;12.43;;;9.03;;
3141;SDS011;1581;51.568;6.998;2023-04-24T04:20:41;12.23;;;8.93;;
3141;SDS011;1581;51.568;6.998;2023-04-24T04:23:09;10.10;;;8.30;;
3141;SDS011;1581;51.568;6.998;2023-04-24T04:25:37;14.23;;;8.33;;
3141;SDS011;1581;51.568;6.998;2023-04-24T04:28:06;10.80;;;8.30;;
3141;SDS011;1581;51.568;6.998;2023-04-24T04:30:34;12.13;;;8.80;;
3141;SDS011;1581;51.568;6.998;2023-04-24T04:33:03;16.80;;;8.20;;
3141;SDS011;1581;51.568;6.998;2023-04-24T04:35:31;11.87;;;8.27;;
3141;SDS011;1581;51.568;6.998;2023-04-24T04:37:59;13.33;;;7.80;;
3141;SDS011;1581;51.568;6.998;2023-04-24T04:40:27;21.03;;;8.67;;
3141;SDS011;1581;51.568;6.998;2023-04-24T04:42:55;11.90;;;8.10;;
3141;SDS011;1581;51.568;6.998;2023-04-24T04:45:24;17.13;;;7.73;;
3141;SDS011;1581;51.568;6.998;2023-04-24T04:47:53;13.03;;;7.90;;
3141;SDS011;1581;51.568;6.998;2023-04-24T04:50:21;17.10;;;8.13;;
3141;SDS011;1581;51.568;6.998;2023-04-24T04:52:50;12.50;;;8.10;;
3141;SDS011;1581;51.568;6.998;2023-04-24T04:55:17;10.07;;;7.10;;
3141;SDS011;1581;51.568;6.998;2023-04-24T04:57:46;11.57;;;7.63;;
3141;SDS011;1581;51.568;6.998;2023-04-24T05:00:14;12.60;;;8.80;;
3141;SDS011;1581;51.568;6.998;2023-04-24T05:02:43;16.50;;;6.00;;
3141;SDS011;1581;51.568;6.998;2023-04-24T05:05:11;18.10;;;8.10;;
3141;SDS011;1581;51.568;6.998;2023-04-24T05:07:40;10.83;;;7.80;;
3141;SDS011;1581;51.568;6.998;2023-04-24T05:10:08;12.50;;;6.00;;
3141;SDS011;1581;51.568;6.998;2023-04-24T05:12:36;17.40;;;7.20;;
3141;SDS011;1581;51.568;6.998;2023-04-24T05:15:05;8.27;;;6.30;;
3141;SDS011;1581;51.568;6.998;2023-04-24T05:17:34;11.70;;;6.90;;
3141;SDS011;1581;51.568;6.998;2023-04-24T05:20:06;13.37;;;7.00;;
3141;SDS011;1581;51.568;6.998;2023-04-24T05:22:35;13.90;;;6.03;;
3141;SDS011;1581;51.568;6.998;2023-04-24T05:25:03;9.63;;;7.00;;
3141;SDS011;1581;51.568;6.998;2023-04-24T05:27:31;9.20;;;6.63;;
3141;SDS011;1581;51.568;6.998;2023-04-24T05:29:59;16.47;;;7.30;;
3141;SDS011;1581;51.568;6.998;2023-04-24T05:32:27;12.57;;;7.30;;
3141;SDS011;1581;51.568;6.998;2023-04-24T05:34:54;12.93;;;7.20;;
3141;SDS011;1581;51.568;6.998;2023-04-24T05:37:24;9.13;;;7.13;;
3141;SDS011;1581;51.568;6.998;2023-04-24T05:39:52;12.13;;;7.10;;
3141;SDS011;1581;51.568;6.998;2023-04-24T05:42:20;8.30;;;6.30;;
3141;SDS011;1581;51.568;6.998;2023-04-24T05:44:48;11.03;;;6.67;;
3141;SDS011;1581;51.568;6.998;2023-04-24T05:47:16;9.53;;;5.70;;
3141;SDS011;1581;51.568;6.998;2023-04-24T05:49:44;8.67;;;7.07;;
3141;SDS011;1581;51.568;6.998;2023-04-24T05:52:12;8.60;;;7.10;;
3141;SDS011;1581;51.568;6.998;2023-04-24T05:54:42;8.47;;;7.40;;
3141;SDS011;1581;51.568;6.998;2023-04-24T05:57:10;11.97;;;7.63;;
3141;SDS011;1581;51.568;6.998;2023-04-24T05:59:37;11.80;;;7.00;;
3141;SDS011;1581;51.568;6.998;2023-04-24T06:02:05;12.87;;;6.90;;
3141;SDS011;1581;51.568;6.998;2023-04-24T06:04:33;8.97;;;7.20;;
3141;SDS011;1581;51.568;6.998;2023-04-24T06:07:01;9.20;;;7.20;;
3141;SDS011;1581;51.568;6.998;2023-04-24T06:09:29;13.10;;;7.37;;
3141;SDS011;1581;51.568;6.998;2023-04-24T06:11:58;11.27;;;7.00;;
3141;SDS011;1581;51.568;6.998;2023-04-24T06:14:26;8.03;;;6.80;;
3141;SDS011;1581;51.568;6.998;2023-04-24T06:16:54;10.60;;;6.87;;
3141;SDS011;1581;51.568;6.998;2023-04-24T06:19:21;10.00;;;7.33;;
3141;SDS011;1581;51.568;6.998;2023-04-24T06:21:49;11.30;;;8.00;;
3141;SDS011;1581;51.568;6.998;2023-04-24T06:24:18;7.67;;;6.30;;
3141;SDS011;1581;51.568;6.998;2023-04-24T06:26:45;9.23;;;5.90;;
3141;SDS011;1581;51.568;6.998;2023-04-24T06:29:15;8.97;;;7.10;;
3141;SDS011;1581;51.568;6.998;2023-04-24T06:31:42;12.73;;;7.23;;
3141;SDS011;1581;51.568;6.998;2023-04-24T06:34:10;8.37;;;7.10;;
3141;SDS011;1581;51.568;6.998;2023-04-24T06:36:38;8.10;;;6.17;;
3141;SDS011;1581;51.568;6.998;2023-04-24T06:39:06;8.33;;;6.60;;
3141;SDS011;1581;51.568;6.998;2023-04-24T06:41:35;8.20;;;6.50;;
3141;SDS011;1581;51.568;6.998;2023-04-24T06:44:05;11.80;;;6.83;;
3141;SDS011;1581;51.568;6.998;2023-04-24T06:46:34;6.57;;;5.60;;
3141;SDS011;1581;51.568;6.998;2023-04-24T06:49:02;13.63;;;6.60;;
3141;SDS011;1581;51.568;6.998;2023-04-24T06:51:29;10.90;;;5.97;;
3141;SDS011;1581;51.568;6.998;2023-04-24T06:53:58;8.83;;;5.70;;
3141;SDS011;1581;51.568;6.998;2023-04-24T06:56:27;6.20;;;5.60;;
3141;SDS011;1581;51.568;6.998;2023-04-24T06:58:54;8.10;;;4.73;;
3141;SDS011;1581;51.568;6.998;2023-04-24T07:01:22;5.07;;;4.50;;
3141;SDS011;1581;51.568;6.998;2023-04-24T07:03:52;8.07;;;4.67;;
3141;SDS011;1581;51.568;6.998;2023-04-24T07:06:20;6.60;;;3.93;;
3141;SDS011;1581;51.568;6.998;2023-04-24T07:08:48;6.47;;;5.13;;
3141;SDS011;1581;51.568;6.998;2023-04-24T07:11:16;7.03;;;4.80;;
3141;SDS011;1581;51.568;6.998;2023-04-24T07:13:45;7.50;;;4.77;;
3141;SDS011;1581;51.568;6.998;2023-04-24T07:16:13;7.63;;;5.60;;
3141;SDS011;1581;51.568;6.998;2023-04-24T07:18:41;7.23;;;4.73;;
3141;SDS011;1581;51.568;6.998;2023-04-24T07:21:10;5.97;;;4.50;;
3141;SDS011;1581;51.568;6.998;2023-04-24T07:23:38;6.33;;;4.30;;
3141;SDS011;1581;51.568;6.998;2023-04-24T07:26:06;6.10;;;4.50;;
3141;SDS011;1581;51.568;6.998;2023-04-24T07:28:34;4.63;;;3.50;;
3141;SDS011;1581;51.568;6.998;2023-04-24T07:31:03;4.77;;;3.80;;
3141;SDS011;1581;51.568;6.998;2023-04-24T07:33:31;6.13;;;4.03;;
3141;SDS011;1581;51.568;6.998;2023-04-24T07:35:59;4.43;;;3.27;;
3141;SDS011;1581;51.568;6.998;2023-04-24T07:38:30;5.33;;;3.57;;
3141;SDS011;1581;51.568;6.998;2023-04-24T07:40:58;4.70;;;2.97;;
3141;SDS011;1581;51.568;6.998;2023-04-24T07:43:26;4.63;;;2.37;;
3141;SDS011;1581;51.568;6.998;2023-04-24T07:45:54;3.70;;;2.00;;
3141;SDS011;1581;51.568;6.998;2023-04-24T07:48:23;1.90;;;1.80;;
3141;SDS011;1581;51.568;6.998;2023-04-24T07:50:51;4.10;;;1.70;;
3141;SDS011;1581;51.568;6.998;2023-04-24T07:53:20;4.13;;;1.70;;
3141;SDS011;1581;51.568;6.998;2023-04-24T07:55:50;1.50;;;1.30;;
3141;SDS011;1581;51.568;6.998;2023-04-24T07:58:20;1.23;;;1.17;;
3141;SDS011;1581;51.568;6.998;2023-04-24T08:00:48;1.33;;;0.90;;
3141;SDS011;1581;51.568;6.998;2023-04-24T08:03:17;2.03;;;1.33;;
3141;SDS011;1581;51.568;6.998;2023-04-24T08:05:45;2.60;;;0.93;;
3141;SDS011;1581;51.568;6.998;2023-04-24T08:08:13;3.20;;;1.20;;
3141;SDS011;1581;51.568;6.998;2023-04-24T08:10:41;1.43;;;1.33;;
3141;SDS011;1581;51.568;6.998;2023-04-24T08:13:10;2.83;;;1.60;;
3141;SDS011;1581;51.568;6.998;2023-04-24T08:15:39;2.30;;;1.50;;
3141;SDS011;1581;51.568;6.998;2023-04-24T08:18:08;3.03;;;1.70;;
3141;SDS011;1581;51.568;6.998;2023-04-24T08:20:37;2.30;;;2.07;;
3141;SDS011;1581;51.568;6.998;2023-04-24T08:23:05;2.13;;;1.50;;
3141;SDS011;1581;51.568;6.998;2023-04-24T08:25:34;2.07;;;1.40;;
3141;SDS011;1581;51.568;6.998;2023-04-24T08:28:02;1.70;;;1.40;;
3141;SDS011;1581;51.568;6.998;2023-04-24T08:30:33;3.13;;;1.73;;
3141;SDS011;1581;51.568;6.998;2023-04-24T08:33:01;1.97;;;1.60;;
3141;SDS011;1581;51.568;6.998;2023-04-24T08:35:30;2.50;;;1.37;;
3141;SDS011;1581;51.568;6.998;2023-04-24T08:37:58;6.07;;;1.90;;
3141;SDS011;1581;51.568;6.998;2023-04-24T08:40:27;4.53;;;1.57;;
3141;SDS011;1581;51.568;6.998;2023-04-24T08:42:56;3.03;;;1.77;;
3141;SDS011;1581;51.568;6.998;2023-04-24T08:45:25;2.30;;;1.77;;
3141;SDS011;1581;51.568;6.998;2023-04-24T08:47:55;2.00;;;1.90;;
3141;SDS011;1581;51.568;6.998;2023-04-24T08:50:26;2.70;;;1.60;;
3141;SDS011;1581;51.568;6.998;2023-04-24T08:52:55;1.93;;;1.83;;
3141;SDS011;1581;51.568;6.998;2023-04-24T08:55:24;1.63;;;1.53;;
3141;SDS011;1581;51.568;6.998;2023-04-24T08:57:52;2.93;;;2.20;;
3141;SDS011;1581;51.568;6.998;2023-04-24T09:00:21;1.73;;;1.60;;
3141;SDS011;1581;51.568;6.998;2023-04-24T09:02:49;2.17;;;1.87;;
3141;SDS011;1581;51.568;6.998;2023-04-24T09:05:21;1.10;;;1.10;;
3141;SDS011;1581;51.568;6.998;2023-04-24T09:07:52;1.10;;;1.00;;
3141;SDS011;1581;51.568;6.998;2023-04-24T09:10:23;0.70;;;0.70;;
3141;SDS011;1581;51.568;6.998;2023-04-24T09:12:56;0.93;;;0.93;;
3141;SDS011;1581;51.568;6.998;2023-04-24T09:15:27;1.30;;;1.20;;
3141;SDS011;1581;51.568;6.998;2023-04-24T09:17:56;1.40;;;1.30;;
3141;SDS011;1581;51.568;6.998;2023-04-24T09:20:25;1.50;;;1.00;;
3141;SDS011;1581;51.568;6.998;2023-04-24T09:22:54;1.00;;;0.87;;
3141;SDS011;1581;51.568;6.998;2023-04-24T09:25:24;1.20;;;1.10;;
3141;SDS011;1581;51.568;6.998;2023-04-24T09:28:00;2.77;;;1.20;;
3141;SDS011;1581;51.568;6.998;2023-04-24T09:30:29;0.80;;;0.80;;
3141;SDS011;1581;51.568;6.998;2023-04-24T09:33:10;1.10;;;1.00;;
3141;SDS011;1581;51.568;6.998;2023-04-24T09:35:42;1.53;;;1.40;;
3141;SDS011;1581;51.568;6.998;2023-04-24T09:38:15;2.70;;;1.90;;
3141;SDS011;1581;51.568;6.998;2023-04-24T09:40:43;3.60;;;2.40;;
3141;SDS011;1581;51.568;6.998;2023-04-24T09:43:11;2.87;;;2.57;;
3141;SDS011;1581;51.568;6.998;2023-04-24T09:45:40;3.33;;;3.03;;
3141;SDS011;1581;51.568;6.998;2023-04-24T09:48:08;3.77;;;3.00;;
3141;SDS011;1581;51.568;6.998;2023-04-24T09:50:37;5.27;;;2.83;;
3141;SDS011;1581;51.568;6.998;2023-04-24T09:53:06;4.47;;;3.93;;
3141;SDS011;1581;51.568;6.998;2023-04-24T09:55:38;5.43;;;4.40;;
3141;SDS011;1581;51.568;6.998;2023-04-24T09:58:11;6.07;;;4.03;;
3141;SDS011;1581;51.568;6.998;2023-04-24T10:00:39;5.50;;;3.97;;
3141;SDS011;1581;51.568;6.998;2023-04-24T10:03:07;6.73;;;3.50;;
3141;SDS011;1581;51.568;6.998;2023-04-24T10:05:36;7.00;;;3.80;;
3141;SDS011;1581;51.568;6.998;2023-04-24T10:08:07;5.00;;;2.90;;
3141;SDS011;1581;51.568;6.998;2023-04-24T10:10:39;3.87;;;3.00;;
3141;SDS011;1581;51.568;6.998;2023-04-24T10:13:09;5.80;;;3.37;;
3141;SDS011;1581;51.568;6.998;2023-04-24T10:15:38;3.20;;;2.83;;
3141;SDS011;1581;51.568;6.998;2023-04-24T10:18:08;3.33;;;2.90;;
3141;SDS011;1581;51.568;6.998;2023-04-24T10:20:37;4.30;;;3.20;;
3141;SDS011;1581;51.568;6.998;2023-04-24T10:23:08;8.47;;;4.10;;
3141;SDS011;1581;51.568;6.998;2023-04-24T10:25:37;4.70;;;4.20;;
3141;SDS011;1581;51.568;6.998;2023-04-24T10:28:05;3.73;;;3.10;;
3141;SDS011;1581;51.568;6.998;2023-04-24T10:30:33;7.27;;;3.13;;
3141;SDS011;1581;51.568;6.998;2023-04-24T10:33:02;6.70;;;4.33;;
3141;SDS011;1581;51.568;6.998;2023-04-24T10:35:31;7.53;;;4.70;;
3141;SDS011;1581;51.568;6.998;2023-04-24T10:38:03;3.00;;;2.70;;
3141;SDS011;1581;51.568;6.998;2023-04-24T10:40:37;6.10;;;4.23;;
3141;SDS011;1581;51.568;6.998;2023-04-24T10:43:06;7.10;;;4.77;;
3141;SDS011;1581;51.568;6.998;2023-04-24T10:45:36;9.67;;;3.57;;
3141;SDS011;1581;51.568;6.998;2023-04-24T10:48:05;6.53;;;4.10;;
3141;SDS011;1581;51.568;6.998;2023-04-24T10:50:42;8.60;;;4.13;;
3141;SDS011;1581;51.568;6.998;2023-04-24T10:53:14;6.00;;;3.70;;
3141;SDS011;1581;51.568;6.998;2023-04-24T10:55:46;9.93;;;4.67;;
3141;SDS011;1581;51.568;6.998;2023-04-24T10:58:16;13.57;;;5.30;;
3141;SDS011;1581;51.568;6.998;2023-04-24T11:00:55;13.13;;;4.80;;
3141;SDS011;1581;51.568;6.998;2023-04-24T11:03:26;10.33;;;4.93;;
3141;SDS011;1581;51.568;6.998;2023-04-24T11:05:56;11.10;;;4.67;;
3141;SDS011;1581;51.568;6.998;2023-04-24T11:08:28;15.37;;;4.50;;
3141;SDS011;1581;51.568;6.998;2023-04-24T11:11:00;17.30;;;4.60;;
3141;SDS011;1581;51.568;6.998;2023-04-24T11:16:43;14.47;;;4.80;;
3141;SDS011;1581;51.568;6.998;2023-04-24T11:19:18;12.13;;;4.30;;
3141;SDS011;1581;51.568;6.998;2023-04-24T11:21:54;14.70;;;3.90;;
3141;SDS011;1581;51.568;6.998;2023-04-24T11:24:38;19.73;;;4.50;;
3141;SDS011;1581;51.568;6.998;2023-04-24T11:27:16;15.53;;;3.10;;
3141;SDS011;1581;51.568;6.998;2023-04-24T11:29:46;7.53;;;3.30;;
3141;SDS011;1581;51.568;6.998;2023-04-24T11:32:17;10.83;;;3.37;;
3141;SDS011;1581;51.568;6.998;2023-04-24T11:34:53;5.83;;;2.67;;
3141;SDS011;1581;51.568;6.998;2023-04-24T11:37:23;11.10;;;2.87;;
3141;SDS011;1581;51.568;6.998;2023-04-24T11:39:56;15.43;;;3.30;;
3141;SDS011;1581;51.568;6.998;2023-04-24T11:42:25;9.30;;;3.27;;
3141;SDS011;1581;51.568;6.998;2023-04-24T11:44:54;7.20;;;2.80;;
3141;SDS011;1581;51.568;6.998;2023-04-24T11:47:29;8.80;;;3.30;;
3141;SDS011;1581;51.568;6.998;2023-04-24T11:49:59;5.73;;;2.60;;
3141;SDS011;1581;51.568;6.998;2023-04-24T11:52:28;3.80;;;2.60;;
3141;SDS011;1581;51.568;6.998;2023-04-24T11:54:59;7.13;;;2.30;;
3141;SDS011;1581;51.568;6.998;2023-04-24T11:57:26;5.63;;;2.30;;
3141;SDS011;1581;51.568;6.998;2023-04-24T11:59:58;4.90;;;2.60;;
3141;SDS011;1581;51.568;6.998;2023-04-24T12:02:27;8.27;;;2.27;;
3141;SDS011;1581;51.568;6.998;2023-04-24T12:04:55;9.10;;;2.60;;
3141;SDS011;1581;51.568;6.998;2023-04-24T12:07:23;11.87;;;3.00;;
3141;SDS011;1581;51.568;6.998;2023-04-24T12:09:55;5.77;;;2.60;;
3141;SDS011;1581;51.568;6.998;2023-04-24T12:12:26;10.63;;;2.90;;
3141;SDS011;1581;51.568;6.998;2023-04-24T12:14:55;13.63;;;2.20;;
3141;SDS011;1581;51.568;6.998;2023-04-24T12:17:25;12.27;;;2.27;;
3141;SDS011;1581;51.568;6.998;2023-04-24T12:19:58;7.57;;;2.50;;
3141;SDS011;1581;51.568;6.998;2023-04-24T12:22:28;9.70;;;2.87;;
3141;SDS011;1581;51.568;6.998;2023-04-24T12:25:13;9.00;;;2.53;;
3141;SDS011;1581;51.568;6.998;2023-04-24T12:27:43;10.80;;;2.23;;
3141;SDS011;1581;51.568;6.998;2023-04-24T12:30:12;4.90;;;2.40;;
3141;SDS011;1581;51.568;6.998;2023-04-24T12:32:42;5.50;;;2.50;;
3141;SDS011;1581;51.568;6.998;2023-04-24T12:35:12;6.73;;;2.50;;
3141;SDS011;1581;51.568;6.998;2023-04-24T12:37:42;4.43;;;2.50;;
3141;SDS011;1581;51.568;6.998;2023-04-24T12:40:10;2.83;;;2.40;;
3141;SDS011;1581;51.568;6.998;2023-04-24T12:42:44;6.30;;;2.50;;
3141;SDS011;1581;51.568;6.998;2023-04-24T12:45:14;8.07;;;2.43;;
3141;SDS011;1581;51.568;6.998;2023-04-24T12:47:43;3.27;;;2.20;;
3141;SDS011;1581;51.568;6.998;2023-04-24T12:50:13;2.93;;;2.20;;
3141;SDS011;1581;51.568;6.998;2023-04-24T12:52:42;6.87;;;2.20;;
3141;SDS011;1581;51.568;6.998;2023-04-24T12:55:13;3.40;;;1.90;;
3141;SDS011;1581;51.568;6.998;2023-04-24T12:57:41;5.87;;;1.90;;
3141;SDS011;1581;51.568;6.998;2023-04-24T13:00:09;10.50;;;1.80;;
3141;SDS011;1581;51.568;6.998;2023-04-24T13:02:38;1.30;;;1.20;;
3141;SDS011;1581;51.568;6.998;2023-04-24T13:05:06;4.10;;;1.40;;
3141;SDS011;1581;51.568;6.998;2023-04-24T13:07:36;3.93;;;1.70;;
3141;SDS011;1581;51.568;6.998;2023-04-24T13:10:05;3.40;;;1.73;;
3141;SDS011;1581;51.568;6.998;2023-04-24T13:12:35;1.73;;;1.47;;
3141;SDS011;1581;51.568;6.998;2023-04-24T13:15:04;3.13;;;1.30;;
3141;SDS011;1581;51.568;6.998;2023-04-24T13:17:33;2.40;;;1.33;;
3141;SDS011;1581;51.568;6.998;2023-04-24T13:20:01;3.87;;;1.53;;
3141;SDS011;1581;51.568;6.998;2023-04-24T13:22:30;5.23;;;1.83;;
3141;SDS011;1581;51.568;6.998;2023-04-24T13:24:57;2.87;;;1.10;;
3141;SDS011;1581;51.568;6.998;2023-04-24T13:27:26;1.40;;;1.30;;
3141;SDS011;1581;51.568;6.998;2023-04-24T13:29:55;1.43;;;1.03;;
3141;SDS011;1581;51.568;6.998;2023-04-24T13:32:24;1.93;;;1.40;;
3141;SDS011;1581;51.568;6.998;2023-04-24T13:34:52;3.00;;;1.23;;
3141;SDS011;1581;51.568;6.998;2023-04-24T13:37:19;5.53;;;1.80;;
3141;SDS011;1581;51.568;6.998;2023-04-24T13:39:48;3.80;;;1.67;;
3141;SDS011;1581;51.568;6.998;2023-04-24T13:42:17;2.23;;;1.97;;
3141;SDS011;1581;51.568;6.998;2023-04-24T13:44:45;4.53;;;1.80;;
3141;SDS011;1581;51.568;6.998;2023-04-24T13:47:15;6.00;;;1.57;;
3141;SDS011;1581;51.568;6.998;2023-04-24T13:49:43;2.47;;;1.40;;
3141;SDS011;1581;51.568;6.998;2023-04-24T13:52:11;2.20;;;1.30;;
3141;SDS011;1581;51.568;6.998;2023-04-24T13:54:39;3.80;;;2.17;;
3141;SDS011;1581;51.568;6.998;2023-04-24T13:57:07;2.67;;;1.10;;
3141;SDS011;1581;51.568;6.998;2023-04-24T13:59:35;3.63;;;1.70;;
3141;SDS011;1581;51.568;6.998;2023-04-24T14:02:03;1.53;;;1.30;;
3141;SDS011;1581;51.568;6.998;2023-04-24T14:04:33;2.33;;;1.17;;
3141;SDS011;1581;51.568;6.998;2023-04-24T14:07:01;3.07;;;1.80;;
3141;SDS011;1581;51.568;6.998;2023-04-24T14:09:29;2.20;;;1.40;;
3141;SDS011;1581;51.568;6.998;2023-04-24T14:11:57;2.83;;;1.30;;
3141;SDS011;1581;51.568;6.998;2023-04-24T14:14:26;3.27;;;1.10;;
3141;SDS011;1581;51.568;6.998;2023-04-24T14:16:55;5.60;;;1.53;;
3141;SDS011;1581;51.568;6.998;2023-04-24T14:19:23;4.00;;;1.30;;
3141;SDS011;1581;51.568;6.998;2023-04-24T14:21:52;4.20;;;1.80;;
3141;SDS011;1581;51.568;6.998;2023-04-24T14:24:21;5.47;;;1.67;;
3141;SDS011;1581;51.568;6.998;2023-04-24T14:26:49;2.87;;;1.63;;
3141;SDS011;1581;51.568;6.998;2023-04-24T14:29:17;3.47;;;1.60;;
3141;SDS011;1581;51.568;6.998;2023-04-24T14:31:45;3.47;;;1.60;;
3141;SDS011;1581;51.568;6.998;2023-04-24T14:34:13;5.37;;;2.10;;
3141;SDS011;1581;51.568;6.998;2023-04-24T14:36:41;2.13;;;1.67;;
3141;SDS011;1581;51.568;6.998;2023-04-24T14:39:12;14.70;;;2.53;;
3141;SDS011;1581;51.568;6.998;2023-04-24T14:41:40;12.10;;;2.10;;
3141;SDS011;1581;51.568;6.998;2023-04-24T14:44:07;1.97;;;1.80;;
3141;SDS011;1581;51.568;6.998;2023-04-24T14:46:35;3.27;;;2.57;;
3141;SDS011;1581;51.568;6.998;2023-04-24T14:49:03;5.60;;;2.50;;
3141;SDS011;1581;51.568;6.998;2023-04-24T14:51:34;3.90;;;1.90;;
3141;SDS011;1581;51.568;6.998;2023-04-24T14:54:03;2.27;;;1.97;;
3141;SDS011;1581;51.568;6.998;2023-04-24T14:56:33;10.10;;;2.20;;
3141;SDS011;1581;51.568;6.998;2023-04-24T14:59:01;4.30;;;3.03;;
3141;SDS011;1581;51.568;6.998;2023-04-24T15:01:30;3.60;;;2.20;;
3141;SDS011;1581;51.568;6.998;2023-04-24T15:03:58;2.00;;;1.90;;
3141;SDS011;1581;51.568;6.998;2023-04-24T15:06:26;2.77;;;1.50;;
3141;SDS011;1581;51.568;6.998;2023-04-24T15:08:56;2.70;;;1.07;;
3141;SDS011;1581;51.568;6.998;2023-04-24T15:11:24;2.73;;;1.17;;
3141;SDS011;1581;51.568;6.998;2023-04-24T15:13:53;1.07;;;0.87;;
3141;SDS011;1581;51.568;6.998;2023-04-24T15:16:23;1.47;;;1.10;;
3141;SDS011;1581;51.568;6.998;2023-04-24T15:18:51;3.90;;;1.07;;
3141;SDS011;1581;51.568;6.998;2023-04-24T15:21:19;1.40;;;0.80;;
3141;SDS011;1581;51.568;6.998;2023-04-24T15:23:47;2.03;;;0.63;;
3141;SDS011;1581;51.568;6.998;2023-04-24T15:26:15;3.33;;;1.00;;